createdAt,value
2023-03-01T00:09:41.630Z,2.34
2023-03-01T00:24:43.407Z,2.07
2023-03-01T00:39:45.594Z,1.95
2023-03-01T00:54:47.564Z,1.99
2023-03-01T01:09:49.637Z,2.14
2023-03-01T01:24:51.437Z,2.03
2023-03-01T01:39:53.758Z,1.65
2023-03-01T01:55:02.162Z,1.37
2023-03-01T02:10:04.278Z,1.20
2023-03-01T02:25:20.797Z,1.46
2023-03-01T02:40:23.236Z,1.60
2023-03-01T02:55:25.302Z,1.52
2023-03-01T03:10:33.799Z,1.43
2023-03-01T03:25:38.892Z,1.25
2023-03-01T03:40:42.778Z,1.11
2023-03-01T03:55:45.654Z,1.07
2023-03-01T04:10:50.045Z,1.09
2023-03-01T04:25:59.730Z,1.06
2023-03-01T04:41:02.140Z,0.84
2023-03-01T04:56:04.499Z,0.96
2023-03-01T05:11:07.127Z,1.37
2023-03-01T05:26:22.347Z,2.26
2023-03-01T05:41:29.525Z,3.09
2023-03-01T05:56:40.496Z,3.96
2023-03-01T06:11:45.481Z,5.62
2023-03-01T06:26:47.325Z,6.93
2023-03-01T06:41:49.868Z,7.91
2023-03-01T06:56:58.206Z,8.39
2023-03-01T07:12:00.815Z,9.71
2023-03-01T07:27:02.805Z,10.19
2023-03-01T07:42:05.012Z,10.79
2023-03-01T07:57:06.904Z,11.87
2023-03-01T08:12:08.759Z,12.50
2023-03-01T08:27:14.430Z,13.22
2023-03-01T08:42:16.353Z,13.64
2023-03-01T08:57:18.342Z,13.89
2023-03-01T09:12:20.315Z,14.27
2023-03-01T09:27:22.170Z,15.15
2023-03-01T09:42:24.662Z,15.83
2023-03-01T09:57:46.825Z,16.20
2023-03-01T10:12:48.876Z,15.09
2023-03-01T10:27:55.068Z,15.34
2023-03-01T10:43:00.574Z,16.23
2023-03-01T10:58:21.359Z,16.21
2023-03-01T11:13:23.200Z,16.10
2023-03-01T11:28:28.336Z,16.17
2023-03-01T11:43:48.429Z,16.54
2023-03-01T11:58:59.724Z,17.80
2023-03-01T12:14:19.209Z,17.67
2023-03-01T12:29:50.590Z,14.97
2023-03-01T12:44:58.634Z,12.98
2023-03-01T13:00:05.909Z,12.31
2023-03-01T13:15:35.940Z,11.30
2023-03-01T13:30:40.426Z,10.63
2023-03-01T13:45:44.584Z,10.09
2023-03-01T14:00:46.451Z,9.54
2023-03-01T14:16:11.320Z,9.22
2023-03-01T14:31:47.043Z,9.24
2023-03-01T14:46:57.815Z,8.76
2023-03-01T15:02:01.299Z,8.34
2023-03-01T15:17:03.181Z,8.18
2023-03-01T15:32:11.042Z,7.68
2023-03-01T15:47:32.310Z,7.36
2023-03-01T16:02:34.143Z,7.12
2023-03-01T16:17:36.065Z,7.16
2023-03-01T16:32:45.831Z,6.97
2023-03-01T16:47:48.008Z,6.93
2023-03-01T17:02:50.096Z,6.87
2023-03-01T17:17:52.265Z,6.76
2023-03-01T17:32:55.984Z,6.62
2023-03-01T17:47:58.213Z,6.60
2023-03-01T18:03:00.332Z,6.66
2023-03-01T18:18:02.199Z,6.74
2023-03-01T18:33:04.065Z,6.72
2023-03-01T18:48:06.383Z,6.63
2023-03-01T19:03:08.186Z,6.49
2023-03-01T19:18:10.112Z,6.34
2023-03-01T19:33:11.913Z,6.25
2023-03-01T19:48:13.772Z,6.39
2023-03-01T20:03:15.758Z,6.29
2023-03-01T20:18:17.577Z,6.26
2023-03-01T20:33:19.393Z,5.92
2023-03-01T20:48:21.572Z,5.87
2023-03-01T21:03:23.410Z,5.80
2023-03-01T21:18:30.105Z,5.74
2023-03-01T21:33:32.437Z,5.37
2023-03-01T21:48:34.763Z,5.33
2023-03-01T22:03:44.775Z,5.30
2023-03-01T22:18:47.521Z,5.55
2023-03-01T22:33:50.278Z,5.38
2023-03-01T22:48:52.223Z,5.16
2023-03-01T23:03:54.165Z,5.31
2023-03-01T23:18:59.195Z,5.23
2023-03-01T23:34:01.381Z,5.13
2023-03-01T23:49:05.054Z,5.03
